createdAt,value
2019-02-16T00:00:26.482Z,99.90
2019-02-16T00:02:55.103Z,99.90
2019-02-16T00:05:23.662Z,99.90
2019-02-16T00:07:52.243Z,99.90
2019-02-16T00:10:20.899Z,99.90
2019-02-16T00:12:49.510Z,99.90
2019-02-16T00:15:19.008Z,99.90
2019-02-16T00:17:47.640Z,99.90
2019-02-16T00:20:16.308Z,99.90
2019-02-16T00:22:44.888Z,99.90
2019-02-16T00:25:13.517Z,99.90
2019-02-16T00:27:42.100Z,99.90
2019-02-16T00:30:10.703Z,99.90
2019-02-16T00:32:39.353Z,99.90
2019-02-16T00:35:07.982Z,99.90
2019-02-16T00:37:36.573Z,99.90
2019-02-16T00:40:07.577Z,99.90
2019-02-16T00:42:36.206Z,99.90
2019-02-16T00:45:06.438Z,99.90
2019-02-16T00:47:35.015Z,99.90
2019-02-16T00:50:03.751Z,99.90
2019-02-16T00:52:32.344Z,99.90
2019-02-16T00:55:00.899Z,99.90
2019-02-16T00:57:29.457Z,99.90
2019-02-16T00:59:58.075Z,99.90
2019-02-16T01:02:26.640Z,99.90
2019-02-16T01:04:55.262Z,99.90
2019-02-16T01:07:23.828Z,99.90
2019-02-16T01:09:52.412Z,99.90
2019-02-16T01:12:21.121Z,99.90
2019-02-16T01:14:49.712Z,99.90
2019-02-16T01:17:18.275Z,99.90
2019-02-16T01:19:47.069Z,99.90
2019-02-16T01:22:15.841Z,99.90
2019-02-16T01:24:44.492Z,99.90
2019-02-16T01:27:13.051Z,99.90
2019-02-16T01:29:41.640Z,99.90
2019-02-16T01:32:10.196Z,99.90
2019-02-16T01:34:38.784Z,99.90
2019-02-16T01:37:07.404Z,99.90
2019-02-16T01:39:35.987Z,99.90
2019-02-16T01:42:04.549Z,99.90
2019-02-16T01:44:33.130Z,99.90
2019-02-16T01:47:01.689Z,99.90
2019-02-16T01:49:30.276Z,99.90
2019-02-16T01:51:58.836Z,99.90
2019-02-16T01:54:27.428Z,99.90
2019-02-16T01:56:55.985Z,99.90
2019-02-16T01:59:24.571Z,99.90
2019-02-16T02:01:53.134Z,99.90
2019-02-16T02:04:21.732Z,99.90
2019-02-16T02:06:50.293Z,99.90
2019-02-16T02:09:19.049Z,99.90
2019-02-16T02:11:47.618Z,99.90
2019-02-16T02:14:16.251Z,99.90
2019-02-16T02:16:44.764Z,99.90
2019-02-16T02:19:13.348Z,99.90
2019-02-16T02:21:41.922Z,99.90
2019-02-16T02:24:10.503Z,99.90
2019-02-16T02:26:39.140Z,99.90
2019-02-16T02:29:07.705Z,99.90
2019-02-16T02:31:37.598Z,99.90
2019-02-16T02:34:06.256Z,99.90
2019-02-16T02:36:34.845Z,99.90
2019-02-16T02:39:04.847Z,99.90
2019-02-16T02:41:33.437Z,99.90
2019-02-16T02:44:01.991Z,99.90
2019-02-16T02:46:30.578Z,99.90
2019-02-16T02:48:59.142Z,99.90
2019-02-16T02:51:27.732Z,99.90
2019-02-16T02:53:56.291Z,99.90
2019-02-16T02:56:24.877Z,99.90
2019-02-16T02:58:53.446Z,99.90
2019-02-16T03:01:22.032Z,99.90
2019-02-16T03:03:50.595Z,99.90
2019-02-16T03:06:19.181Z,99.90
2019-02-16T03:08:47.747Z,99.90
2019-02-16T03:11:16.336Z,99.90
2019-02-16T03:13:44.900Z,99.90
2019-02-16T03:16:13.493Z,99.90
2019-02-16T03:18:42.053Z,99.90
2019-02-16T03:21:10.637Z,99.90
2019-02-16T03:23:39.200Z,99.90
2019-02-16T03:26:11.237Z,99.90
2019-02-16T03:28:48.989Z,99.90
2019-02-16T03:31:37.114Z,99.90
2019-02-16T03:34:13.921Z,99.90
2019-02-16T03:37:18.889Z,99.90
2019-02-16T03:39:47.701Z,99.90
2019-02-16T03:42:16.288Z,99.90
2019-02-16T03:44:44.916Z,99.90
2019-02-16T03:47:20.032Z,99.90
2019-02-16T03:49:48.625Z,99.90
2019-02-16T03:52:17.215Z,99.90
2019-02-16T03:54:45.763Z,99.90
2019-02-16T03:57:14.360Z,99.90
2019-02-16T03:59:42.916Z,99.90
2019-02-16T04:02:11.500Z,99.90
2019-02-16T04:04:40.071Z,99.90
2019-02-16T04:07:08.648Z,99.90
2019-02-16T04:09:37.244Z,99.90
2019-02-16T04:12:05.822Z,99.90
2019-02-16T04:14:34.381Z,99.90
2019-02-16T04:17:02.972Z,99.90
2019-02-16T04:19:31.535Z,99.90
2019-02-16T04:22:00.109Z,99.90
2019-02-16T04:24:28.700Z,99.90
2019-02-16T04:26:57.257Z,99.90
2019-02-16T04:29:25.846Z,99.90
2019-02-16T04:31:54.400Z,99.90
2019-02-16T04:34:23.009Z,99.90
2019-02-16T04:36:51.584Z,99.90
2019-02-16T04:39:20.175Z,99.90
2019-02-16T04:41:48.743Z,99.90
2019-02-16T04:44:17.342Z,99.90
2019-02-16T04:46:45.905Z,99.90
2019-02-16T04:49:14.496Z,99.90
2019-02-16T04:51:43.072Z,99.90
2019-02-16T04:54:11.672Z,99.90
2019-02-16T04:56:40.240Z,99.90
2019-02-16T04:59:08.828Z,99.90
2019-02-16T05:01:37.392Z,99.90
2019-02-16T05:04:07.999Z,99.90
2019-02-16T05:06:36.213Z,99.90
2019-02-16T05:09:06.917Z,99.90
2019-02-16T05:11:35.481Z,99.90
2019-02-16T05:14:04.117Z,99.90
2019-02-16T05:16:32.642Z,99.90
2019-02-16T05:19:01.235Z,99.90
2019-02-16T05:21:29.799Z,99.90
2019-02-16T05:23:58.396Z,99.90
2019-02-16T05:26:26.964Z,99.90
2019-02-16T05:28:55.566Z,99.90
2019-02-16T05:31:24.136Z,99.90
2019-02-16T05:33:52.729Z,99.90
2019-02-16T05:36:21.301Z,99.90
2019-02-16T05:38:49.897Z,99.90
2019-02-16T05:41:18.467Z,99.90
2019-02-16T05:43:47.053Z,99.90
2019-02-16T05:46:15.614Z,99.90
2019-02-16T05:48:44.200Z,99.90
2019-02-16T05:51:12.778Z,99.90
2019-02-16T05:53:41.364Z,99.90
2019-02-16T05:56:09.931Z,99.90
2019-02-16T05:58:38.498Z,99.90
2019-02-16T06:01:07.088Z,99.90
2019-02-16T06:03:35.658Z,99.90
2019-02-16T06:06:04.261Z,99.90
2019-02-16T06:08:32.828Z,99.90
2019-02-16T06:11:01.417Z,99.90
2019-02-16T06:13:29.984Z,99.90
2019-02-16T06:15:58.580Z,99.90
2019-02-16T06:18:27.152Z,99.90
2019-02-16T06:20:55.736Z,99.90
2019-02-16T06:23:24.321Z,99.90
2019-02-16T06:25:52.918Z,99.90
2019-02-16T06:28:21.480Z,99.90
2019-02-16T06:30:50.139Z,99.90
2019-02-16T06:33:18.709Z,99.90
2019-02-16T06:35:48.967Z,99.90
2019-02-16T06:38:17.532Z,99.90
2019-02-16T06:40:46.125Z,99.90
2019-02-16T06:43:14.704Z,99.90
2019-02-16T06:45:43.294Z,99.90
2019-02-16T06:48:11.856Z,99.90
2019-02-16T06:50:40.458Z,99.90
2019-02-16T06:53:13.251Z,99.90
2019-02-16T06:55:40.885Z,99.90
2019-02-16T06:58:09.466Z,99.90
2019-02-16T07:00:38.052Z,99.90
2019-02-16T07:03:06.696Z,99.90
2019-02-16T07:05:35.284Z,99.90
2019-02-16T07:08:03.847Z,99.90
2019-02-16T07:10:32.427Z,99.90
2019-02-16T07:13:00.988Z,99.90
2019-02-16T07:15:29.572Z,99.90
2019-02-16T07:17:59.779Z,99.90
2019-02-16T07:20:28.366Z,99.90
2019-02-16T07:22:56.920Z,99.90
2019-02-16T07:25:25.515Z,99.90
2019-02-16T07:27:54.089Z,99.90
2019-02-16T07:30:22.656Z,99.90
2019-02-16T07:32:51.244Z,99.90
2019-02-16T07:35:19.805Z,99.60
2019-02-16T07:37:48.384Z,98.20
2019-02-16T07:40:16.937Z,98.00
2019-02-16T07:42:55.781Z,97.00
2019-02-16T07:45:27.920Z,96.60
2019-02-16T07:47:58.144Z,95.90
2019-02-16T07:50:28.344Z,94.40
2019-02-16T07:53:10.344Z,90.90
2019-02-16T07:55:46.537Z,90.60
2019-02-16T07:58:19.753Z,87.30
2019-02-16T08:00:59.052Z,80.50
2019-02-16T08:03:29.256Z,81.20
2019-02-16T08:06:16.067Z,78.30
2019-02-16T08:08:46.262Z,75.60
2019-02-16T08:11:16.480Z,74.90
2019-02-16T08:13:46.687Z,72.80
2019-02-16T08:16:19.861Z,70.40
2019-02-16T08:18:58.609Z,69.90
2019-02-16T08:21:28.937Z,69.90
2019-02-16T08:24:02.184Z,68.70
2019-02-16T08:26:35.469Z,66.90
2019-02-16T08:29:41.526Z,64.10
2019-02-16T08:32:11.749Z,64.00
2019-02-16T08:34:59.861Z,65.50
2019-02-16T08:37:36.344Z,64.10
2019-02-16T08:40:19.537Z,61.90
2019-02-16T08:43:07.862Z,63.10
2019-02-16T08:45:38.054Z,61.50
2019-02-16T08:48:17.628Z,63.10
2019-02-16T08:50:50.731Z,61.50
2019-02-16T08:53:20.963Z,63.60
2019-02-16T08:55:51.162Z,62.50
2019-02-16T08:58:23.968Z,62.30
2019-02-16T09:00:57.107Z,62.70
2019-02-16T09:03:27.328Z,61.70
2019-02-16T09:05:57.524Z,61.20
2019-02-16T09:08:27.748Z,63.30
2019-02-16T09:11:00.918Z,64.80
2019-02-16T09:13:31.121Z,63.60
2019-02-16T09:16:01.316Z,61.00
2019-02-16T09:18:31.532Z,59.80
2019-02-16T09:21:14.498Z,60.00
2019-02-16T09:23:39.415Z,58.40
2019-02-16T09:26:09.632Z,58.50
2019-02-16T09:28:39.853Z,57.40
2019-02-16T09:31:13.263Z,55.90
2019-02-16T09:33:45.903Z,55.20
2019-02-16T09:36:16.087Z,53.00
2019-02-16T09:38:49.045Z,51.60
2019-02-16T09:41:19.239Z,51.70
2019-02-16T09:43:54.927Z,51.60
2019-02-16T09:46:47.248Z,53.60
2019-02-16T09:49:22.930Z,52.60
2019-02-16T09:52:08.584Z,50.90
2019-02-16T09:54:38.812Z,51.40
2019-02-16T09:57:09.011Z,52.60
2019-02-16T09:59:39.245Z,51.70
2019-02-16T10:02:12.496Z,52.60
2019-02-16T10:04:44.557Z,52.00
2019-02-16T10:07:30.507Z,52.50
2019-02-16T10:10:00.919Z,50.00
2019-02-16T10:12:46.479Z,49.60
2019-02-16T10:15:19.173Z,50.10
2019-02-16T10:18:00.963Z,51.80
2019-02-16T10:20:31.186Z,52.30
2019-02-16T10:23:01.391Z,51.80
2019-02-16T10:25:31.608Z,52.70
2019-02-16T10:28:13.887Z,52.90
2019-02-16T10:30:46.567Z,50.50
2019-02-16T10:33:22.524Z,50.70
2019-02-16T10:35:55.180Z,49.20
2019-02-16T10:38:25.377Z,47.70
2019-02-16T10:41:07.380Z,47.80
2019-02-16T10:43:37.599Z,49.30
2019-02-16T10:46:24.472Z,48.70
2019-02-16T10:49:07.082Z,48.50
2019-02-16T10:51:37.408Z,49.00
2019-02-16T10:54:10.608Z,49.60
2019-02-16T10:56:40.834Z,50.90
2019-02-16T10:59:18.656Z,49.60
2019-02-16T11:01:48.768Z,50.70
2019-02-16T11:04:24.561Z,48.10
2019-02-16T11:06:57.727Z,47.80
2019-02-16T11:09:36.807Z,49.60
2019-02-16T11:12:07.038Z,52.00
2019-02-16T11:14:39.976Z,51.10
2019-02-16T11:17:10.198Z,49.40
2019-02-16T11:19:58.668Z,48.20
2019-02-16T11:22:28.893Z,48.50
2019-02-16T11:24:59.092Z,49.30
2019-02-16T11:27:29.304Z,48.60
2019-02-16T11:30:02.479Z,48.70
2019-02-16T11:32:32.695Z,48.50
2019-02-16T11:35:10.272Z,49.10
2019-02-16T11:37:40.652Z,49.40
2019-02-16T11:40:10.853Z,48.80
2019-02-16T11:42:47.120Z,49.00
2019-02-16T11:45:23.124Z,50.80
2019-02-16T11:48:18.309Z,48.60
2019-02-16T11:51:03.549Z,44.90
2019-02-16T11:53:51.669Z,42.20
2019-02-16T11:56:27.776Z,40.50
2019-02-16T11:59:03.575Z,39.50
2019-02-16T12:01:50.020Z,34.80
2019-02-16T12:04:29.048Z,32.20
2019-02-16T12:07:05.264Z,33.00
2019-02-16T12:09:38.452Z,33.50
2019-02-16T12:12:08.648Z,35.30
2019-02-16T12:14:53.951Z,38.00
2019-02-16T12:17:40.402Z,36.20
2019-02-16T12:20:33.579Z,30.70
2019-02-16T12:23:05.495Z,33.10
2019-02-16T12:25:35.699Z,32.90
2019-02-16T12:28:05.925Z,35.60
2019-02-16T12:30:38.918Z,35.30
2019-02-16T12:36:11.281Z,36.60
2019-02-16T12:38:47.372Z,35.10
2019-02-16T12:41:17.576Z,36.10
2019-02-16T12:43:53.949Z,37.70
2019-02-16T12:46:26.611Z,35.30
2019-02-16T12:49:02.831Z,36.10
2019-02-16T12:51:33.037Z,37.30
2019-02-16T12:54:06.357Z,36.90
2019-02-16T12:56:42.754Z,37.70
2019-02-16T12:59:12.978Z,38.90
2019-02-16T13:02:01.460Z,38.30
2019-02-16T13:04:31.773Z,39.00
2019-02-16T13:07:17.108Z,39.80
2019-02-16T13:09:50.038Z,38.30
2019-02-16T13:12:28.836Z,38.20
2019-02-16T13:15:05.024Z,38.70
2019-02-16T13:17:50.321Z,39.20
2019-02-16T13:20:26.372Z,36.20
2019-02-16T13:22:56.576Z,33.50
2019-02-16T13:25:26.800Z,32.60
2019-02-16T13:27:59.780Z,35.40
2019-02-16T13:30:34.029Z,36.00
2019-02-16T13:33:21.070Z,32.40
2019-02-16T13:36:00.485Z,32.00
2019-02-16T13:38:33.576Z,32.30
2019-02-16T13:41:09.589Z,36.10
2019-02-16T13:43:39.787Z,35.30
2019-02-16T13:46:15.833Z,37.20
2019-02-16T13:48:46.101Z,37.70
2019-02-16T13:51:35.312Z,40.60
2019-02-16T13:54:14.192Z,41.60
2019-02-16T13:59:45.269Z,44.60
2019-02-16T14:02:33.593Z,47.00
2019-02-16T14:05:03.976Z,48.40
2019-02-16T14:07:50.524Z,50.70
2019-02-16T14:10:32.834Z,51.20
2019-02-16T14:15:57.651Z,53.20
2019-02-16T14:18:26.213Z,53.00
2019-02-16T14:20:54.800Z,53.50
2019-02-16T14:23:23.373Z,54.20
2019-02-16T14:25:52.117Z,55.40
2019-02-16T14:28:20.670Z,56.10
2019-02-16T14:30:49.252Z,56.30
2019-02-16T14:33:17.818Z,56.20
2019-02-16T14:35:46.395Z,56.00
2019-02-16T14:38:16.668Z,55.80
2019-02-16T14:40:45.253Z,55.80
2019-02-16T14:43:13.825Z,56.80
2019-02-16T14:45:42.405Z,56.60
2019-02-16T14:48:11.060Z,55.80
2019-02-16T14:50:39.698Z,57.20
2019-02-16T14:53:08.258Z,57.40
2019-02-16T14:55:36.868Z,57.80
2019-02-16T14:58:05.420Z,57.40
2019-02-16T15:00:34.071Z,56.40
2019-02-16T15:03:02.648Z,55.70
2019-02-16T15:05:31.296Z,56.20
2019-02-16T15:08:00.326Z,55.80
2019-02-16T15:10:28.885Z,55.80
2019-02-16T15:12:57.537Z,56.00
2019-02-16T15:15:26.040Z,56.90
2019-02-16T15:17:54.627Z,57.80
2019-02-16T15:20:23.190Z,59.60
2019-02-16T15:22:51.772Z,60.60
2019-02-16T15:25:20.342Z,61.00
2019-02-16T15:27:49.000Z,61.00
2019-02-16T15:30:21.319Z,60.40
2019-02-16T15:32:49.968Z,59.90
2019-02-16T15:35:20.478Z,59.60
2019-02-16T15:37:48.915Z,59.60
2019-02-16T15:40:17.475Z,59.40
2019-02-16T15:42:46.052Z,59.90
2019-02-16T15:45:15.052Z,59.90
2019-02-16T15:47:43.624Z,60.10
2019-02-16T15:50:15.436Z,60.10
2019-02-16T15:52:44.131Z,60.50
2019-02-16T15:55:13.059Z,62.00
2019-02-16T15:57:41.645Z,63.20
2019-02-16T16:00:16.504Z,63.40
2019-02-16T16:02:45.180Z,63.50
2019-02-16T16:05:13.891Z,64.00
2019-02-16T16:07:44.113Z,64.70
2019-02-16T16:10:20.143Z,64.80
2019-02-16T16:12:50.371Z,65.50
2019-02-16T16:15:29.518Z,66.00
2019-02-16T16:18:05.765Z,67.40
2019-02-16T16:20:36.036Z,68.80
2019-02-16T16:23:18.300Z,68.80
2019-02-16T16:25:48.514Z,70.40
2019-02-16T16:28:33.820Z,70.90
2019-02-16T16:31:19.207Z,71.50
2019-02-16T16:34:05.469Z,72.90
2019-02-16T16:36:38.382Z,74.00
2019-02-16T16:39:08.988Z,75.60
2019-02-16T16:41:44.912Z,76.90
2019-02-16T16:44:15.137Z,77.80
2019-02-16T16:46:48.309Z,79.60
2019-02-16T16:49:24.544Z,81.80
2019-02-16T16:52:00.827Z,83.40
2019-02-16T16:54:37.022Z,84.90
2019-02-16T16:57:07.213Z,86.00
2019-02-16T16:59:37.643Z,86.90
2019-02-16T17:02:10.746Z,87.90
2019-02-16T17:04:52.806Z,88.90
2019-02-16T17:07:24.786Z,89.50
2019-02-16T17:10:03.951Z,90.20
2019-02-16T17:12:37.053Z,90.60
2019-02-16T17:15:11.148Z,91.10
2019-02-16T17:17:47.199Z,92.00
2019-02-16T17:20:20.132Z,92.60
2019-02-16T17:22:50.329Z,93.50
2019-02-16T17:25:29.705Z,94.30
2019-02-16T17:28:02.959Z,95.00
2019-02-16T17:30:34.905Z,95.60
2019-02-16T17:33:08.330Z,96.00
2019-02-16T17:35:50.492Z,96.60
2019-02-16T17:38:20.718Z,96.70
2019-02-16T17:41:07.268Z,97.00
2019-02-16T17:43:37.485Z,97.00
2019-02-16T17:46:07.680Z,97.10
2019-02-16T17:48:54.189Z,97.30
2019-02-16T17:51:33.331Z,97.40
2019-02-16T17:54:08.395Z,97.40
2019-02-16T17:56:46.804Z,97.80
2019-02-16T17:59:28.109Z,97.80
2019-02-16T18:01:58.446Z,98.30
2019-02-16T18:04:31.466Z,98.70
2019-02-16T18:07:01.648Z,98.80
2019-02-16T18:09:37.626Z,99.30
2019-02-16T18:12:16.819Z,99.70
2019-02-16T18:14:52.744Z,99.90
2019-02-16T18:17:22.941Z,99.90
2019-02-16T18:19:53.156Z,99.90
2019-02-16T18:22:23.375Z,99.90
2019-02-16T18:25:09.522Z,99.90
2019-02-16T18:27:45.722Z,99.90
2019-02-16T18:30:21.466Z,99.90
2019-02-16T18:33:03.435Z,99.90
2019-02-16T18:35:50.119Z,99.90
2019-02-16T18:38:28.776Z,99.90
2019-02-16T18:40:59.002Z,99.90
2019-02-16T18:43:32.019Z,99.90
2019-02-16T18:46:05.301Z,99.90
2019-02-16T18:48:50.805Z,99.90
2019-02-16T18:51:37.546Z,99.90
2019-02-16T18:54:20.043Z,99.90
2019-02-16T18:56:53.283Z,99.90
2019-02-16T18:59:32.555Z,99.90
2019-02-16T19:02:05.957Z,99.90
2019-02-16T19:04:41.884Z,99.90
2019-02-16T19:07:17.658Z,99.90
2019-02-16T19:09:50.643Z,99.90
2019-02-16T19:12:27.083Z,99.90
2019-02-16T19:15:13.628Z,99.90
2019-02-16T19:17:43.857Z,99.90
2019-02-16T19:20:16.514Z,99.90
2019-02-16T19:22:53.077Z,99.90
2019-02-16T19:25:26.222Z,99.90
2019-02-16T19:28:05.436Z,99.90
2019-02-16T19:30:35.632Z,99.90
2019-02-16T19:33:05.901Z,99.90
2019-02-16T19:35:51.148Z,99.90
2019-02-16T19:38:25.350Z,99.90
2019-02-16T19:41:04.632Z,99.90
2019-02-16T19:43:46.894Z,99.90
2019-02-16T19:46:20.173Z,99.90
2019-02-16T19:48:53.233Z,99.90
2019-02-16T19:51:29.525Z,99.90
2019-02-16T19:54:02.432Z,99.90
2019-02-16T19:56:38.128Z,99.90
2019-02-16T19:59:10.969Z,99.90
2019-02-16T20:01:49.732Z,99.90
2019-02-16T20:04:36.456Z,99.90
2019-02-16T20:07:22.853Z,99.90
2019-02-16T20:09:55.852Z,99.90
2019-02-16T20:12:26.128Z,99.90
2019-02-16T20:14:56.359Z,99.90
2019-02-16T20:17:32.828Z,99.90
2019-02-16T20:20:05.912Z,99.90
2019-02-16T20:22:38.807Z,99.90
2019-02-16T20:25:11.630Z,99.90
2019-02-16T20:27:41.841Z,99.90
2019-02-16T20:30:12.124Z,99.90
2019-02-16T20:32:45.280Z,99.90
2019-02-16T20:35:31.706Z,99.90
2019-02-16T20:38:04.746Z,99.90
2019-02-16T20:40:34.964Z,99.90
2019-02-16T20:43:05.171Z,99.90
2019-02-16T20:45:35.393Z,99.90
2019-02-16T20:48:17.917Z,99.90
2019-02-16T20:51:06.691Z,99.90
2019-02-16T20:53:49.033Z,99.90
2019-02-16T20:56:37.413Z,99.90
2019-02-16T20:59:16.335Z,99.90
2019-02-16T21:01:49.291Z,99.90
2019-02-16T21:04:35.866Z,99.90
2019-02-16T21:07:06.140Z,99.90
2019-02-16T21:09:48.368Z,99.90
2019-02-16T21:12:24.055Z,99.90
2019-02-16T21:14:54.260Z,99.90
2019-02-16T21:17:38.666Z,99.90
2019-02-16T21:20:27.232Z,99.90
2019-02-16T21:23:25.832Z,99.90
2019-02-16T21:25:58.719Z,99.90
2019-02-16T21:28:45.125Z,99.90
2019-02-16T21:31:18.408Z,99.90
2019-02-16T21:33:48.679Z,99.90
2019-02-16T21:36:24.847Z,99.90
2019-02-16T21:39:03.411Z,99.90
2019-02-16T21:41:36.177Z,99.90
2019-02-16T21:44:24.901Z,99.90
2019-02-16T21:47:10.116Z,99.90
2019-02-16T21:49:49.231Z,99.90
2019-02-16T21:55:13.060Z,99.90
2019-02-16T21:57:46.497Z,99.90
2019-02-16T22:00:22.708Z,99.90
2019-02-16T22:03:09.189Z,99.90
2019-02-16T22:05:45.124Z,99.90
2019-02-16T22:08:15.528Z,99.90
2019-02-16T22:10:45.832Z,99.90
2019-02-16T22:13:14.392Z,99.90
2019-02-16T22:15:42.993Z,99.90
2019-02-16T22:18:11.623Z,99.90
2019-02-16T22:20:40.210Z,99.90
2019-02-16T22:23:08.766Z,99.90
2019-02-16T22:25:37.348Z,99.90
2019-02-16T22:28:05.913Z,99.90
2019-02-16T22:30:34.507Z,99.90
2019-02-16T22:33:03.082Z,99.90
2019-02-16T22:35:31.736Z,99.90
2019-02-16T22:38:00.295Z,99.90
2019-02-16T22:40:28.882Z,99.90
2019-02-16T22:42:57.452Z,99.90
2019-02-16T22:45:26.069Z,99.90
2019-02-16T22:47:54.640Z,99.90
2019-02-16T22:50:23.204Z,99.90
2019-02-16T22:52:51.792Z,99.90
2019-02-16T22:55:20.352Z,99.90
2019-02-16T22:57:48.934Z,99.90
2019-02-16T23:00:37.555Z,99.90
2019-02-16T23:03:07.589Z,99.90
2019-02-16T23:05:36.153Z,99.90
2019-02-16T23:08:04.877Z,99.90
2019-02-16T23:10:33.580Z,99.90
2019-02-16T23:13:02.195Z,99.90
2019-02-16T23:15:30.834Z,99.90
2019-02-16T23:17:59.478Z,99.90
2019-02-16T23:20:28.036Z,99.90
2019-02-16T23:22:56.639Z,99.90
2019-02-16T23:25:25.194Z,99.90
2019-02-16T23:27:53.775Z,99.90
2019-02-16T23:30:22.580Z,99.90
2019-02-16T23:32:51.233Z,99.90
2019-02-16T23:35:20.292Z,99.90
2019-02-16T23:37:48.882Z,99.90
2019-02-16T23:40:17.444Z,99.90
2019-02-16T23:42:46.032Z,99.90
2019-02-16T23:45:14.662Z,99.90
2019-02-16T23:47:43.243Z,99.90
2019-02-16T23:50:11.947Z,99.90
2019-02-16T23:52:40.540Z,99.90
2019-02-16T23:55:11.016Z,99.90
2019-02-16T23:57:39.600Z,99.90
